Rechercher aéroport 
image banner adimage banner ad
image banner ad

SVVR - Vega Del Rio

Situé à Portuguesa, Venezuela

ICAO - SVVR, IATA -

Données fournies par Airmate  

Information générale

Coordonnées: N8°44'18" W69°14'36"
Élévation : 1082 feet MSL.
 
Voir autres Aéroports à Bolívar

Données opérationnelles

Accessible au public
Heure actuelle UTC:
Heure actuelle locale:
Météo à : SVGU - Guanare Ntl ( 65 km )
METAR: SVGU 261202Z AUTO 27002KT NCD 24/21 Q1014
Voir NOTAMs / SUP AIP / TFR affectant cet aéroport [VIEW]
Fréquences de communication: [VIEW]

Pistes:

Identifiant RWYQFULongueur (ft)Largeur (ft)SurfaceLDA (ft)
1100
2900

Coordonnées de l'aéroport

Adresse: Portuguesa Venezuela

Vue satellite de SVVR